sensor_id;sensor_type;location;lat;lon;timestamp;temperature;humidity
5520;DHT22;2782;52.362;10.012;2023-02-19T00:00:46;18.30;68.40
5520;DHT22;2782;52.362;10.012;2023-02-19T00:01:47;18.40;68.50
5520;DHT22;2782;52.362;10.012;2023-02-19T00:02:49;18.30;68.40
5520;DHT22;2782;52.362;10.012;2023-02-19T00:03:53;18.30;68.40
5520;DHT22;2782;52.362;10.012;2023-02-19T00:04:55;18.30;68.40
5520;DHT22;2782;52.362;10.012;2023-02-19T00:05:55;18.30;68.50
5520;DHT22;2782;52.362;10.012;2023-02-19T00:06:57;18.30;68.50
5520;DHT22;2782;52.362;10.012;2023-02-19T00:07:57;18.30;68.50
5520;DHT22;2782;52.362;10.012;2023-02-19T00:08:59;18.30;68.50
5520;DHT22;2782;52.362;10.012;2023-02-19T00:10:00;18.30;68.80
5520;DHT22;2782;52.362;10.012;2023-02-19T00:11:02;18.30;68.40
5520;DHT22;2782;52.362;10.012;2023-02-19T00:12:03;18.30;68.50
5520;DHT22;2782;52.362;10.012;2023-02-19T00:13:05;18.30;68.60
5520;DHT22;2782;52.362;10.012;2023-02-19T00:14:06;18.30;68.70
5520;DHT22;2782;52.362;10.012;2023-02-19T00:15:08;18.30;68.80
5520;DHT22;2782;52.362;10.012;2023-02-19T00:16:13;18.30;68.90
5520;DHT22;2782;52.362;10.012;2023-02-19T00:17:15;18.30;69.00
5520;DHT22;2782;52.362;10.012;2023-02-19T00:18:16;18.30;69.10
5520;DHT22;2782;52.362;10.012;2023-02-19T00:19:19;18.30;69.10
5520;DHT22;2782;52.362;10.012;2023-02-19T00:20:21;18.30;69.00
5520;DHT22;2782;52.362;10.012;2023-02-19T00:21:22;18.30;69.20
5520;DHT22;2782;52.362;10.012;2023-02-19T00:22:23;18.30;69.30
5520;DHT22;2782;52.362;10.012;2023-02-19T00:23:24;18.30;69.30
5520;DHT22;2782;52.362;10.012;2023-02-19T00:24:26;18.30;69.30
5520;DHT22;2782;52.362;10.012;2023-02-19T00:25:26;18.30;70.00
5520;DHT22;2782;52.362;10.012;2023-02-19T00:26:29;18.30;69.20
5520;DHT22;2782;52.362;10.012;2023-02-19T00:27:29;18.30;69.40
5520;DHT22;2782;52.362;10.012;2023-02-19T00:28:32;18.30;69.50
5520;DHT22;2782;52.362;10.012;2023-02-19T00:29:33;18.30;69.60
5520;DHT22;2782;52.362;10.012;2023-02-19T00:30:35;18.30;69.70
5520;DHT22;2782;52.362;10.012;2023-02-19T00:31:37;18.20;69.70
5520;DHT22;2782;52.362;10.012;2023-02-19T00:32:39;18.20;69.70
5520;DHT22;2782;52.362;10.012;2023-02-19T00:33:40;18.20;69.80
5520;DHT22;2782;52.362;10.012;2023-02-19T00:34:42;18.30;69.80
5520;DHT22;2782;52.362;10.012;2023-02-19T00:35:43;18.20;70.00
5520;DHT22;2782;52.362;10.012;2023-02-19T00:36:44;18.30;70.30
5520;DHT22;2782;52.362;10.012;2023-02-19T00:37:46;18.20;70.20
5520;DHT22;2782;52.362;10.012;2023-02-19T00:38:47;18.30;70.30
5520;DHT22;2782;52.362;10.012;2023-02-19T00:39:48;18.20;70.30
5520;DHT22;2782;52.362;10.012;2023-02-19T00:40:49;18.20;70.50
5520;DHT22;2782;52.362;10.012;2023-02-19T00:41:51;18.20;70.60
5520;DHT22;2782;52.362;10.012;2023-02-19T00:42:52;18.20;70.70
5520;DHT22;2782;52.362;10.012;2023-02-19T00:43:56;18.20;70.80
5520;DHT22;2782;52.362;10.012;2023-02-19T00:44:56;18.20;70.90
5520;DHT22;2782;52.362;10.012;2023-02-19T00:45:58;18.20;71.00
5520;DHT22;2782;52.362;10.012;2023-02-19T00:47:00;18.20;71.00
5520;DHT22;2782;52.362;10.012;2023-02-19T00:48:01;18.20;71.00
5520;DHT22;2782;52.362;10.012;2023-02-19T00:49:03;18.20;71.00
5520;DHT22;2782;52.362;10.012;2023-02-19T00:50:05;18.20;71.20
5520;DHT22;2782;52.362;10.012;2023-02-19T00:51:06;18.20;71.00
5520;DHT22;2782;52.362;10.012;2023-02-19T00:52:07;18.20;71.00
5520;DHT22;2782;52.362;10.012;2023-02-19T00:53:09;18.20;71.20
5520;DHT22;2782;52.362;10.012;2023-02-19T00:54:10;18.20;71.20
5520;DHT22;2782;52.362;10.012;2023-02-19T00:55:12;18.20;71.40
5520;DHT22;2782;52.362;10.012;2023-02-19T00:56:13;18.20;71.30
5520;DHT22;2782;52.362;10.012;2023-02-19T00:57:14;18.20;71.40
5520;DHT22;2782;52.362;10.012;2023-02-19T00:58:15;18.20;71.30
5520;DHT22;2782;52.362;10.012;2023-02-19T00:59:17;18.20;71.40
5520;DHT22;2782;52.362;10.012;2023-02-19T01:00:17;18.20;71.40
5520;DHT22;2782;52.362;10.012;2023-02-19T01:01:19;18.20;71.60
5520;DHT22;2782;52.362;10.012;2023-02-19T01:02:21;18.20;71.60
5520;DHT22;2782;52.362;10.012;2023-02-19T01:03:23;18.20;71.60
5520;DHT22;2782;52.362;10.012;2023-02-19T01:04:24;18.20;71.80
5520;DHT22;2782;52.362;10.012;2023-02-19T01:05:25;18.20;72.50
5520;DHT22;2782;52.362;10.012;2023-02-19T01:06:26;18.10;71.80
5520;DHT22;2782;52.362;10.012;2023-02-19T01:07:29;18.20;71.90
5520;DHT22;2782;52.362;10.012;2023-02-19T01:08:30;18.20;71.90
5520;DHT22;2782;52.362;10.012;2023-02-19T01:09:32;18.20;72.00
5520;DHT22;2782;52.362;10.012;2023-02-19T01:10:33;18.20;72.00
5520;DHT22;2782;52.362;10.012;2023-02-19T01:11:34;18.20;72.00
5520;DHT22;2782;52.362;10.012;2023-02-19T01:12:35;18.20;72.10
5520;DHT22;2782;52.362;10.012;2023-02-19T01:13:37;18.20;72.20
5520;DHT22;2782;52.362;10.012;2023-02-19T01:14:37;18.10;72.00
5520;DHT22;2782;52.362;10.012;2023-02-19T01:15:39;18.10;72.00
5520;DHT22;2782;52.362;10.012;2023-02-19T01:16:39;18.10;72.00
5520;DHT22;2782;52.362;10.012;2023-02-19T01:17:42;18.20;72.10
5520;DHT22;2782;52.362;10.012;2023-02-19T01:18:43;18.20;72.10
5520;DHT22;2782;52.362;10.012;2023-02-19T01:19:45;18.20;72.20
5520;DHT22;2782;52.362;10.012;2023-02-19T01:20:46;18.10;72.20
5520;DHT22;2782;52.362;10.012;2023-02-19T01:21:47;18.20;72.10
5520;DHT22;2782;52.362;10.012;2023-02-19T01:22:48;18.20;72.10
5520;DHT22;2782;52.362;10.012;2023-02-19T01:23:52;18.20;72.20
5520;DHT22;2782;52.362;10.012;2023-02-19T01:24:52;18.20;72.10
5520;DHT22;2782;52.362;10.012;2023-02-19T01:25:54;18.10;72.10
5520;DHT22;2782;52.362;10.012;2023-02-19T01:26:55;18.10;72.10
5520;DHT22;2782;52.362;10.012;2023-02-19T01:27:56;18.10;72.10
5520;DHT22;2782;52.362;10.012;2023-02-19T01:28:57;18.10;72.00
5520;DHT22;2782;52.362;10.012;2023-02-19T01:29:59;18.10;72.00
5520;DHT22;2782;52.362;10.012;2023-02-19T01:31:00;18.10;72.20
5520;DHT22;2782;52.362;10.012;2023-02-19T01:32:02;18.10;72.80
5520;DHT22;2782;52.362;10.012;2023-02-19T01:33:05;18.10;72.00
5520;DHT22;2782;52.362;10.012;2023-02-19T01:34:09;18.10;72.00
5520;DHT22;2782;52.362;10.012;2023-02-19T01:35:10;18.10;72.20
5520;DHT22;2782;52.362;10.012;2023-02-19T01:36:11;18.10;72.10
5520;DHT22;2782;52.362;10.012;2023-02-19T01:37:12;18.10;72.10
5520;DHT22;2782;52.362;10.012;2023-02-19T01:38:14;18.10;72.10
5520;DHT22;2782;52.362;10.012;2023-02-19T01:39:14;18.10;72.80
5520;DHT22;2782;52.362;10.012;2023-02-19T01:40:16;18.10;72.00
5520;DHT22;2782;52.362;10.012;2023-02-19T01:41:19;18.10;72.10
5520;DHT22;2782;52.362;10.012;2023-02-19T01:42:21;18.10;72.00
5520;DHT22;2782;52.362;10.012;2023-02-19T01:43:22;18.10;72.20
5520;DHT22;2782;52.362;10.012;2023-02-19T01:45:12;18.10;72.00
5520;DHT22;2782;52.362;10.012;2023-02-19T01:46:17;18.10;72.00
5520;DHT22;2782;52.362;10.012;2023-02-19T01:47:19;18.10;72.10
5520;DHT22;2782;52.362;10.012;2023-02-19T01:48:25;18.10;72.00
5520;DHT22;2782;52.362;10.012;2023-02-19T01:49:29;18.10;72.30
5520;DHT22;2782;52.362;10.012;2023-02-19T01:50:35;18.10;72.20
5520;DHT22;2782;52.362;10.012;2023-02-19T01:51:39;18.00;72.10
5520;DHT22;2782;52.362;10.012;2023-02-19T01:52:41;18.00;72.10
5520;DHT22;2782;52.362;10.012;2023-02-19T01:53:44;18.10;72.10
5520;DHT22;2782;52.362;10.012;2023-02-19T01:54:48;18.10;72.20
5520;DHT22;2782;52.362;10.012;2023-02-19T01:55:52;18.00;72.00
5520;DHT22;2782;52.362;10.012;2023-02-19T01:56:56;18.00;72.00
5520;DHT22;2782;52.362;10.012;2023-02-19T01:57:57;18.10;72.00
5520;DHT22;2782;52.362;10.012;2023-02-19T01:59:00;18.00;71.90
5520;DHT22;2782;52.362;10.012;2023-02-19T02:00:05;18.00;71.90
5520;DHT22;2782;52.362;10.012;2023-02-19T02:01:08;18.00;71.90
5520;DHT22;2782;52.362;10.012;2023-02-19T02:02:09;18.00;71.80
5520;DHT22;2782;52.362;10.012;2023-02-19T02:03:11;18.00;71.70
5520;DHT22;2782;52.362;10.012;2023-02-19T02:04:16;18.00;71.60
5520;DHT22;2782;52.362;10.012;2023-02-19T02:05:24;18.00;71.60
5520;DHT22;2782;52.362;10.012;2023-02-19T02:06:30;18.00;71.50
5520;DHT22;2782;52.362;10.012;2023-02-19T02:07:33;18.00;71.60
5520;DHT22;2782;52.362;10.012;2023-02-19T02:08:55;18.00;71.40
5520;DHT22;2782;52.362;10.012;2023-02-19T02:10:14;18.00;71.50
5520;DHT22;2782;52.362;10.012;2023-02-19T02:11:21;18.00;71.40
5520;DHT22;2782;52.362;10.012;2023-02-19T02:12:23;18.00;71.50
5520;DHT22;2782;52.362;10.012;2023-02-19T02:13:23;18.00;71.40
5520;DHT22;2782;52.362;10.012;2023-02-19T02:14:29;18.00;71.40
5520;DHT22;2782;52.362;10.012;2023-02-19T02:15:37;18.00;71.40
5520;DHT22;2782;52.362;10.012;2023-02-19T02:16:48;18.00;71.30
5520;DHT22;2782;52.362;10.012;2023-02-19T02:17:55;18.00;71.40
5520;DHT22;2782;52.362;10.012;2023-02-19T02:19:01;18.00;71.40
5520;DHT22;2782;52.362;10.012;2023-02-19T02:20:31;18.00;71.40
5520;DHT22;2782;52.362;10.012;2023-02-19T02:21:50;18.00;71.20
5520;DHT22;2782;52.362;10.012;2023-02-19T02:22:58;18.00;71.10
5520;DHT22;2782;52.362;10.012;2023-02-19T02:24:13;18.00;71.20
5520;DHT22;2782;52.362;10.012;2023-02-19T02:25:37;17.90;71.10
5520;DHT22;2782;52.362;10.012;2023-02-19T02:26:54;17.90;71.00
5520;DHT22;2782;52.362;10.012;2023-02-19T02:28:06;17.90;71.00
5520;DHT22;2782;52.362;10.012;2023-02-19T02:29:25;17.90;71.00
5520;DHT22;2782;52.362;10.012;2023-02-19T02:30:38;17.90;71.10
5520;DHT22;2782;52.362;10.012;2023-02-19T02:31:46;17.90;71.10
5520;DHT22;2782;52.362;10.012;2023-02-19T02:32:53;17.90;71.00
5520;DHT22;2782;52.362;10.012;2023-02-19T02:33:58;17.90;71.00
5520;DHT22;2782;52.362;10.012;2023-02-19T02:35:03;17.90;71.00
5520;DHT22;2782;52.362;10.012;2023-02-19T02:36:09;17.90;70.90
5520;DHT22;2782;52.362;10.012;2023-02-19T02:37:13;17.90;70.80
5520;DHT22;2782;52.362;10.012;2023-02-19T02:38:16;17.90;70.90
5520;DHT22;2782;52.362;10.012;2023-02-19T02:39:21;17.90;70.80
5520;DHT22;2782;52.362;10.012;2023-02-19T02:40:24;17.90;70.70
5520;DHT22;2782;52.362;10.012;2023-02-19T02:41:25;17.90;70.70
5520;DHT22;2782;52.362;10.012;2023-02-19T02:42:27;17.90;70.70
5520;DHT22;2782;52.362;10.012;2023-02-19T02:43:27;17.90;70.60
5520;DHT22;2782;52.362;10.012;2023-02-19T02:44:33;17.90;70.50
5520;DHT22;2782;52.362;10.012;2023-02-19T02:45:34;17.90;70.50
5520;DHT22;2782;52.362;10.012;2023-02-19T02:46:39;17.90;70.50
5520;DHT22;2782;52.362;10.012;2023-02-19T02:47:46;17.90;70.40
5520;DHT22;2782;52.362;10.012;2023-02-19T02:48:49;17.90;70.40
5520;DHT22;2782;52.362;10.012;2023-02-19T02:49:53;17.90;70.40
5520;DHT22;2782;52.362;10.012;2023-02-19T02:51:10;17.90;70.40
5520;DHT22;2782;52.362;10.012;2023-02-19T02:52:14;17.90;70.30
5520;DHT22;2782;52.362;10.012;2023-02-19T02:53:40;17.90;70.20
5520;DHT22;2782;52.362;10.012;2023-02-19T02:55:06;17.90;70.20
5520;DHT22;2782;52.362;10.012;2023-02-19T02:56:09;17.90;70.30
5520;DHT22;2782;52.362;10.012;2023-02-19T02:57:11;17.90;70.20
5520;DHT22;2782;52.362;10.012;2023-02-19T02:58:15;17.90;70.20
5520;DHT22;2782;52.362;10.012;2023-02-19T02:59:19;17.90;70.20
5520;DHT22;2782;52.362;10.012;2023-02-19T03:00:23;17.80;70.00
5520;DHT22;2782;52.362;10.012;2023-02-19T03:01:27;17.80;70.10
5520;DHT22;2782;52.362;10.012;2023-02-19T03:04:51;17.80;70.10
5520;DHT22;2782;52.362;10.012;2023-02-19T03:06:11;17.80;70.00
5520;DHT22;2782;52.362;10.012;2023-02-19T03:07:13;17.80;70.10
5520;DHT22;2782;52.362;10.012;2023-02-19T03:08:16;17.80;70.10
5520;DHT22;2782;52.362;10.012;2023-02-19T03:09:23;17.80;70.10
5520;DHT22;2782;52.362;10.012;2023-02-19T03:10:32;17.80;70.10
5520;DHT22;2782;52.362;10.012;2023-02-19T03:11:35;17.80;70.10
5520;DHT22;2782;52.362;10.012;2023-02-19T03:12:58;17.80;70.10
5520;DHT22;2782;52.362;10.012;2023-02-19T03:14:21;17.80;70.10
5520;DHT22;2782;52.362;10.012;2023-02-19T03:15:47;17.80;70.10
5520;DHT22;2782;52.362;10.012;2023-02-19T03:17:21;17.80;70.10
5520;DHT22;2782;52.362;10.012;2023-02-19T03:18:44;17.70;70.10
5520;DHT22;2782;52.362;10.012;2023-02-19T03:20:11;17.70;70.00
5520;DHT22;2782;52.362;10.012;2023-02-19T03:21:15;17.70;70.00
5520;DHT22;2782;52.362;10.012;2023-02-19T03:22:19;17.70;70.10
5520;DHT22;2782;52.362;10.012;2023-02-19T03:23:24;17.70;70.10
5520;DHT22;2782;52.362;10.012;2023-02-19T03:24:55;17.70;70.00
5520;DHT22;2782;52.362;10.012;2023-02-19T03:26:18;17.80;70.10
5520;DHT22;2782;52.362;10.012;2023-02-19T03:27:20;17.70;70.10
5520;DHT22;2782;52.362;10.012;2023-02-19T03:28:24;17.70;70.00
5520;DHT22;2782;52.362;10.012;2023-02-19T03:29:47;17.70;69.90
5520;DHT22;2782;52.362;10.012;2023-02-19T03:30:52;17.70;70.00
5520;DHT22;2782;52.362;10.012;2023-02-19T03:31:56;17.70;70.00
5520;DHT22;2782;52.362;10.012;2023-02-19T03:33:01;17.70;69.80
5520;DHT22;2782;52.362;10.012;2023-02-19T03:34:10;17.70;69.80
5520;DHT22;2782;52.362;10.012;2023-02-19T03:35:17;17.70;69.80
5520;DHT22;2782;52.362;10.012;2023-02-19T03:36:20;17.70;69.70
5520;DHT22;2782;52.362;10.012;2023-02-19T03:37:28;17.70;69.70
5520;DHT22;2782;52.362;10.012;2023-02-19T03:38:37;17.70;69.70
5520;DHT22;2782;52.362;10.012;2023-02-19T03:39:38;17.70;69.50
5520;DHT22;2782;52.362;10.012;2023-02-19T03:40:51;17.70;69.60
5520;DHT22;2782;52.362;10.012;2023-02-19T03:41:59;17.70;69.50
5520;DHT22;2782;52.362;10.012;2023-02-19T03:43:07;17.70;69.40
5520;DHT22;2782;52.362;10.012;2023-02-19T03:44:15;17.70;69.40
5520;DHT22;2782;52.362;10.012;2023-02-19T03:45:27;17.70;69.50
5520;DHT22;2782;52.362;10.012;2023-02-19T03:46:35;17.70;69.40
5520;DHT22;2782;52.362;10.012;2023-02-19T03:47:44;17.70;69.30
5520;DHT22;2782;52.362;10.012;2023-02-19T03:48:52;17.70;69.40
5520;DHT22;2782;52.362;10.012;2023-02-19T03:50:00;17.70;69.30
5520;DHT22;2782;52.362;10.012;2023-02-19T03:51:26;17.70;69.30
5520;DHT22;2782;52.362;10.012;2023-02-19T03:52:38;17.70;69.30
5520;DHT22;2782;52.362;10.012;2023-02-19T03:53:48;17.70;69.20
5520;DHT22;2782;52.362;10.012;2023-02-19T03:54:56;17.70;69.20
5520;DHT22;2782;52.362;10.012;2023-02-19T03:56:06;17.70;69.20
5520;DHT22;2782;52.362;10.012;2023-02-19T03:57:15;17.70;69.10
5520;DHT22;2782;52.362;10.012;2023-02-19T03:58:25;17.70;69.10
5520;DHT22;2782;52.362;10.012;2023-02-19T03:59:32;17.70;69.20
5520;DHT22;2782;52.362;10.012;2023-02-19T04:00:39;17.70;69.10
5520;DHT22;2782;52.362;10.012;2023-02-19T04:01:47;17.70;69.10
5520;DHT22;2782;52.362;10.012;2023-02-19T04:02:55;17.70;69.10
5520;DHT22;2782;52.362;10.012;2023-02-19T04:04:01;17.70;69.20
5520;DHT22;2782;52.362;10.012;2023-02-19T04:05:08;17.70;69.00
5520;DHT22;2782;52.362;10.012;2023-02-19T04:06:14;17.70;69.00
5520;DHT22;2782;52.362;10.012;2023-02-19T04:07:17;17.70;69.10
5520;DHT22;2782;52.362;10.012;2023-02-19T04:08:21;17.70;69.00
5520;DHT22;2782;52.362;10.012;2023-02-19T04:09:25;17.70;69.00
5520;DHT22;2782;52.362;10.012;2023-02-19T04:10:28;17.70;69.00
5520;DHT22;2782;52.362;10.012;2023-02-19T04:11:30;17.70;69.00
5520;DHT22;2782;52.362;10.012;2023-02-19T04:12:33;17.70;68.90
5520;DHT22;2782;52.362;10.012;2023-02-19T04:13:37;17.70;68.90
5520;DHT22;2782;52.362;10.012;2023-02-19T04:14:45;17.70;68.90
5520;DHT22;2782;52.362;10.012;2023-02-19T04:15:47;17.70;68.80
5520;DHT22;2782;52.362;10.012;2023-02-19T04:16:53;17.70;68.90
5520;DHT22;2782;52.362;10.012;2023-02-19T04:17:59;17.70;68.90
5520;DHT22;2782;52.362;10.012;2023-02-19T04:19:05;17.70;68.90
5520;DHT22;2782;52.362;10.012;2023-02-19T04:20:09;17.70;68.80
5520;DHT22;2782;52.362;10.012;2023-02-19T04:21:12;17.70;68.80
5520;DHT22;2782;52.362;10.012;2023-02-19T04:22:15;17.70;68.70
5520;DHT22;2782;52.362;10.012;2023-02-19T04:23:21;17.60;68.70
5520;DHT22;2782;52.362;10.012;2023-02-19T04:24:27;17.60;68.70
5520;DHT22;2782;52.362;10.012;2023-02-19T04:25:30;17.60;68.60
5520;DHT22;2782;52.362;10.012;2023-02-19T04:26:32;17.60;68.70
5520;DHT22;2782;52.362;10.012;2023-02-19T04:27:35;17.70;68.70
5520;DHT22;2782;52.362;10.012;2023-02-19T04:28:37;17.60;68.70
5520;DHT22;2782;52.362;10.012;2023-02-19T04:29:39;17.70;68.80
5520;DHT22;2782;52.362;10.012;2023-02-19T04:30:39;17.60;69.30
5520;DHT22;2782;52.362;10.012;2023-02-19T04:31:41;17.60;68.50
5520;DHT22;2782;52.362;10.012;2023-02-19T04:32:42;17.60;68.50
5520;DHT22;2782;52.362;10.012;2023-02-19T04:33:43;17.60;68.50
5520;DHT22;2782;52.362;10.012;2023-02-19T04:34:44;17.60;68.50
5520;DHT22;2782;52.362;10.012;2023-02-19T04:35:46;17.60;68.50
5520;DHT22;2782;52.362;10.012;2023-02-19T04:36:46;17.60;68.50
5520;DHT22;2782;52.362;10.012;2023-02-19T04:37:48;17.60;68.40
5520;DHT22;2782;52.362;10.012;2023-02-19T04:38:50;17.60;68.40
5520;DHT22;2782;52.362;10.012;2023-02-19T04:39:51;17.60;68.50
5520;DHT22;2782;52.362;10.012;2023-02-19T04:40:52;17.60;68.40
5520;DHT22;2782;52.362;10.012;2023-02-19T04:41:54;17.60;68.10
5520;DHT22;2782;52.362;10.012;2023-02-19T04:42:54;17.60;67.80
5520;DHT22;2782;52.362;10.012;2023-02-19T04:43:56;17.60;68.00
5520;DHT22;2782;52.362;10.012;2023-02-19T04:44:56;17.60;67.90
5520;DHT22;2782;52.362;10.012;2023-02-19T04:45:59;17.60;68.40
5520;DHT22;2782;52.362;10.012;2023-02-19T04:47:00;17.60;68.80
5520;DHT22;2782;52.362;10.012;2023-02-19T04:48:02;17.60;69.30
5520;DHT22;2782;52.362;10.012;2023-02-19T04:49:03;17.60;69.30
5520;DHT22;2782;52.362;10.012;2023-02-19T04:50:05;17.60;69.50
5520;DHT22;2782;52.362;10.012;2023-02-19T04:51:06;17.60;69.60
5520;DHT22;2782;52.362;10.012;2023-02-19T04:52:08;17.60;69.60
5520;DHT22;2782;52.362;10.012;2023-02-19T04:53:09;17.60;69.80
5520;DHT22;2782;52.362;10.012;2023-02-19T04:54:12;17.60;69.80
5520;DHT22;2782;52.362;10.012;2023-02-19T04:55:12;17.60;69.80
5520;DHT22;2782;52.362;10.012;2023-02-19T04:56:15;17.60;69.80
5520;DHT22;2782;52.362;10.012;2023-02-19T04:57:16;17.60;70.00
5520;DHT22;2782;52.362;10.012;2023-02-19T04:58:19;17.60;69.90
5520;DHT22;2782;52.362;10.012;2023-02-19T04:59:20;17.60;70.10
5520;DHT22;2782;52.362;10.012;2023-02-19T05:00:21;17.60;70.10
5520;DHT22;2782;52.362;10.012;2023-02-19T05:01:22;17.60;70.10
5520;DHT22;2782;52.362;10.012;2023-02-19T05:02:24;17.60;70.10
5520;DHT22;2782;52.362;10.012;2023-02-19T05:03:24;17.60;70.30
5520;DHT22;2782;52.362;10.012;2023-02-19T05:04:26;17.60;70.30
5520;DHT22;2782;52.362;10.012;2023-02-19T05:05:27;17.60;70.30
5520;DHT22;2782;52.362;10.012;2023-02-19T05:06:28;17.60;70.30
5520;DHT22;2782;52.362;10.012;2023-02-19T05:07:29;17.60;70.30
5520;DHT22;2782;52.362;10.012;2023-02-19T05:08:31;17.60;70.40
5520;DHT22;2782;52.362;10.012;2023-02-19T05:09:33;17.60;70.40
5520;DHT22;2782;52.362;10.012;2023-02-19T05:10:34;17.60;70.40
5520;DHT22;2782;52.362;10.012;2023-02-19T05:11:35;17.60;70.50
5520;DHT22;2782;52.362;10.012;2023-02-19T05:12:36;17.60;70.40
5520;DHT22;2782;52.362;10.012;2023-02-19T05:13:37;17.60;70.40
5520;DHT22;2782;52.362;10.012;2023-02-19T05:14:39;17.60;70.40
5520;DHT22;2782;52.362;10.012;2023-02-19T05:15:40;17.60;70.60
5520;DHT22;2782;52.362;10.012;2023-02-19T05:16:41;17.50;70.50
5520;DHT22;2782;52.362;10.012;2023-02-19T05:17:42;17.60;70.60
5520;DHT22;2782;52.362;10.012;2023-02-19T05:18:44;17.50;70.20
5520;DHT22;2782;52.362;10.012;2023-02-19T05:19:45;17.60;70.40
5520;DHT22;2782;52.362;10.012;2023-02-19T05:20:48;17.50;70.40
5520;DHT22;2782;52.362;10.012;2023-02-19T05:21:49;17.60;70.50
5520;DHT22;2782;52.362;10.012;2023-02-19T05:22:51;17.50;70.30
5520;DHT22;2782;52.362;10.012;2023-02-19T05:23:52;17.50;70.20
5520;DHT22;2782;52.362;10.012;2023-02-19T05:24:55;17.50;70.20
5520;DHT22;2782;52.362;10.012;2023-02-19T05:25:55;17.50;70.20
5520;DHT22;2782;52.362;10.012;2023-02-19T05:26:57;17.50;70.20
5520;DHT22;2782;52.362;10.012;2023-02-19T05:27:57;17.50;70.10
5520;DHT22;2782;52.362;10.012;2023-02-19T05:29:13;17.50;70.10
5520;DHT22;2782;52.362;10.012;2023-02-19T05:30:15;17.50;70.80
5520;DHT22;2782;52.362;10.012;2023-02-19T05:31:16;17.50;70.20
5520;DHT22;2782;52.362;10.012;2023-02-19T05:32:18;17.50;70.20
5520;DHT22;2782;52.362;10.012;2023-02-19T05:33:20;17.50;70.10
5520;DHT22;2782;52.362;10.012;2023-02-19T05:34:22;17.50;69.70
5520;DHT22;2782;52.362;10.012;2023-02-19T05:35:23;17.50;69.50
5520;DHT22;2782;52.362;10.012;2023-02-19T05:36:24;17.50;69.70
5520;DHT22;2782;52.362;10.012;2023-02-19T05:37:25;17.50;69.80
5520;DHT22;2782;52.362;10.012;2023-02-19T05:38:27;17.50;69.70
5520;DHT22;2782;52.362;10.012;2023-02-19T05:39:28;17.50;69.70
5520;DHT22;2782;52.362;10.012;2023-02-19T05:40:31;17.50;69.60
5520;DHT22;2782;52.362;10.012;2023-02-19T05:41:32;17.50;69.50
5520;DHT22;2782;52.362;10.012;2023-02-19T05:42:33;17.50;69.50
5520;DHT22;2782;52.362;10.012;2023-02-19T05:43:34;17.50;69.40
5520;DHT22;2782;52.362;10.012;2023-02-19T05:44:36;17.50;69.40
5520;DHT22;2782;52.362;10.012;2023-02-19T05:45:37;17.60;69.50
5520;DHT22;2782;52.362;10.012;2023-02-19T05:46:38;17.60;69.50
5520;DHT22;2782;52.362;10.012;2023-02-19T05:47:40;17.60;69.50
5520;DHT22;2782;52.362;10.012;2023-02-19T05:48:41;17.60;69.40
5520;DHT22;2782;52.362;10.012;2023-02-19T05:49:42;17.60;69.40
5520;DHT22;2782;52.362;10.012;2023-02-19T05:50:43;17.60;69.40
5520;DHT22;2782;52.362;10.012;2023-02-19T05:51:45;17.60;69.30
5520;DHT22;2782;52.362;10.012;2023-02-19T05:52:45;17.70;69.40
5520;DHT22;2782;52.362;10.012;2023-02-19T05:53:48;17.70;69.40
5520;DHT22;2782;52.362;10.012;2023-02-19T05:54:48;17.70;69.30
5520;DHT22;2782;52.362;10.012;2023-02-19T05:55:51;17.70;69.20
5520;DHT22;2782;52.362;10.012;2023-02-19T05:56:52;17.70;69.20
5520;DHT22;2782;52.362;10.012;2023-02-19T05:57:53;17.70;69.10
5520;DHT22;2782;52.362;10.012;2023-02-19T05:58:55;17.80;69.30
5520;DHT22;2782;52.362;10.012;2023-02-19T05:59:56;17.80;69.20
5520;DHT22;2782;52.362;10.012;2023-02-19T06:00:57;17.80;69.20
5520;DHT22;2782;52.362;10.012;2023-02-19T06:01:59;17.80;69.20
5520;DHT22;2782;52.362;10.012;2023-02-19T06:02:59;17.80;69.20
5520;DHT22;2782;52.362;10.012;2023-02-19T06:04:01;17.80;69.20
5520;DHT22;2782;52.362;10.012;2023-02-19T06:05:03;17.80;69.10
5520;DHT22;2782;52.362;10.012;2023-02-19T06:06:05;17.90;69.20
5520;DHT22;2782;52.362;10.012;2023-02-19T06:07:06;17.90;69.10
5520;DHT22;2782;52.362;10.012;2023-02-19T06:08:09;17.90;69.20
5520;DHT22;2782;52.362;10.012;2023-02-19T06:09:10;17.90;69.10
5520;DHT22;2782;52.362;10.012;2023-02-19T06:10:12;17.90;69.00
5520;DHT22;2782;52.362;10.012;2023-02-19T06:11:14;17.90;69.00
5520;DHT22;2782;52.362;10.012;2023-02-19T06:12:15;18.00;69.10
5520;DHT22;2782;52.362;10.012;2023-02-19T06:13:17;17.90;68.90
5520;DHT22;2782;52.362;10.012;2023-02-19T06:14:17;17.90;68.90
5520;DHT22;2782;52.362;10.012;2023-02-19T06:15:19;17.90;68.80
5520;DHT22;2782;52.362;10.012;2023-02-19T06:16:21;18.00;68.90
5520;DHT22;2782;52.362;10.012;2023-02-19T06:17:22;18.00;68.80
5520;DHT22;2782;52.362;10.012;2023-02-19T06:18:23;18.00;68.80
5520;DHT22;2782;52.362;10.012;2023-02-19T06:19:24;18.00;68.80
5520;DHT22;2782;52.362;10.012;2023-02-19T06:20:25;18.00;68.70
5520;DHT22;2782;52.362;10.012;2023-02-19T06:21:27;18.00;68.70
5520;DHT22;2782;52.362;10.012;2023-02-19T06:22:27;18.00;68.70
5520;DHT22;2782;52.362;10.012;2023-02-19T06:23:29;18.00;68.60
5520;DHT22;2782;52.362;10.012;2023-02-19T06:24:30;18.00;68.50
5520;DHT22;2782;52.362;10.012;2023-02-19T06:25:31;18.00;68.50
5520;DHT22;2782;52.362;10.012;2023-02-19T06:26:34;18.00;68.50
5520;DHT22;2782;52.362;10.012;2023-02-19T06:27:36;18.10;68.60
5520;DHT22;2782;52.362;10.012;2023-02-19T06:28:37;18.00;68.40
5520;DHT22;2782;52.362;10.012;2023-02-19T06:29:38;18.10;68.50
5520;DHT22;2782;52.362;10.012;2023-02-19T06:30:39;18.10;68.40
5520;DHT22;2782;52.362;10.012;2023-02-19T06:31:41;18.10;68.50
5520;DHT22;2782;52.362;10.012;2023-02-19T06:32:44;18.10;68.40
5520;DHT22;2782;52.362;10.012;2023-02-19T06:33:46;18.10;68.40
5520;DHT22;2782;52.362;10.012;2023-02-19T06:34:49;18.10;68.30
5520;DHT22;2782;52.362;10.012;2023-02-19T06:35:51;18.10;68.30
5520;DHT22;2782;52.362;10.012;2023-02-19T06:36:52;18.10;68.20
5520;DHT22;2782;52.362;10.012;2023-02-19T06:37:54;18.10;68.20
5520;DHT22;2782;52.362;10.012;2023-02-19T06:38:58;18.10;68.20
5520;DHT22;2782;52.362;10.012;2023-02-19T06:40:00;18.10;68.20
5520;DHT22;2782;52.362;10.012;2023-02-19T06:41:01;18.10;68.10
5520;DHT22;2782;52.362;10.012;2023-02-19T06:42:04;18.10;68.20
5520;DHT22;2782;52.362;10.012;2023-02-19T06:43:06;18.10;68.10
5520;DHT22;2782;52.362;10.012;2023-02-19T06:44:08;18.10;68.10
5520;DHT22;2782;52.362;10.012;2023-02-19T06:45:10;18.10;68.10
5520;DHT22;2782;52.362;10.012;2023-02-19T06:46:13;18.10;68.10
5520;DHT22;2782;52.362;10.012;2023-02-19T06:47:18;18.10;68.10
5520;DHT22;2782;52.362;10.012;2023-02-19T06:48:18;18.10;67.90
5520;DHT22;2782;52.362;10.012;2023-02-19T06:49:21;18.10;68.00
5520;DHT22;2782;52.362;10.012;2023-02-19T06:50:23;18.10;68.00
5520;DHT22;2782;52.362;10.012;2023-02-19T06:51:25;18.10;68.00
5520;DHT22;2782;52.362;10.012;2023-02-19T06:52:28;18.10;68.00
5520;DHT22;2782;52.362;10.012;2023-02-19T06:53:30;18.10;68.00